Weather History for KMAO - November, 2012

Change the Weather History Date:

Thursday, November 8, 2012

  Actual Average (KFLO) Record (KFLO)
Temperature  
Mean Temperature 47 °F 58 °F  
Max Temperature 62 °F 70 °F 84 °F (1986)
Min Temperature 32 °F 46 °F 21 °F (1967)
Degree Days  
Heating Degree Days 18 8  
Month to date heating degree days 59  
Since 1 July heating degree days 176  
Cooling Degree Days 0 1  
Month to date cooling degree days 8  
Year to date cooling degree days 2050  
Moisture  
Dew Point 33 °F    
Average Humidity 74    
Maximum Humidity 100    
Minimum Humidity 24    
Precipitation  
Precipitation 0.00 in 0.08 in 0.69 in (1996)
Month to date precipitation 0.70  
Year to date precipitation 37.93  
Sea Level Pressure  
Sea Level Pressure 30.05 in    
Wind  
Wind Speed 2 mph (WNW)    
Max Wind Speed 13 mph    
Max Gust Speed 18 mph    
Visibility 9 miles    
Events      
T = Trace of Precipitation, MM = Missing Value Source: NWS Daily Summary

Daily Weather History Graph

Daily Weather History Graph

Search for Another Location

Airport or City:

Trip Planner

Search our weather history database for the weather conditions in past years. The results will help you decide how hot, cold, wet, or windy it might be!

Date:

Astronomy

Nov. 08, 2012 Rise Set
Actual Time 6:44 AM EST 5:17 PM EST
Civil Twilight 6:17 AM EST 5:44 PM EST
Nautical Twilight 5:47 AM EST 6:14 PM EST
Astronomical Twilight 5:18 AM EST 6:43 PM EST
Moon 12:52 AM EST (11/8) 1:44 PM EST (11/8)
Length of Visible Light 11h 26m
Length of Day
10h 33m
Waning Crescent, 33% of the Moon is Illuminated
Nov 8
Waning Crescent
Nov 13
New
Nov 20
First Quarter
Nov 28
Full
Dec 6
Last Quarter

Hourly Weather History & Observations

Time (EST) Temp. Windchill Dew Point Humidity Pressure Visibility Wind Dir Wind Speed Gust Speed Precip Events Conditions
12:15 AM 35.6 °F - 35.6 °F 100% 29.97 in 10.0 mi Calm Calm - N/A   Clear
12:35 AM 35.6 °F - 35.6 °F 100% 29.97 in 10.0 mi Calm Calm - N/A   Clear
12:55 AM 35.6 °F - 35.6 °F 100% 29.97 in 10.0 mi Calm Calm - N/A   Clear
1:15 AM 33.8 °F - 33.8 °F 100% 29.97 in 7.0 mi Calm Calm - N/A   Clear
1:35 AM 35.6 °F - 35.6 °F 100% 29.97 in 10.0 mi Calm Calm - N/A   Clear
1:55 AM 33.8 °F - 33.8 °F 100% 29.97 in 10.0 mi Calm Calm - N/A   Clear
2:15 AM 33.8 °F - 33.8 °F 100% 29.98 in 7.0 mi Calm Calm - N/A   Clear
2:35 AM 33.8 °F - 33.8 °F 100% 29.97 in 7.0 mi Calm Calm - N/A   Clear
2:55 AM 33.8 °F - 33.8 °F 100% 29.97 in 7.0 mi Calm Calm - N/A   Clear
3:15 AM 33.8 °F - 33.8 °F 100% 29.98 in 7.0 mi Calm Calm - N/A   Clear
3:35 AM 32.0 °F - 32.0 °F 100% 29.98 in 7.0 mi Calm Calm - N/A   Clear
3:55 AM 32.0 °F - 32.0 °F 100% 29.98 in 7.0 mi Calm Calm - N/A   Clear
4:15 AM 32.0 °F - 32.0 °F 100% 29.99 in 7.0 mi Calm Calm - N/A   Clear
4:35 AM 32.0 °F - 32.0 °F 100% 30.00 in 7.0 mi Calm Calm - N/A   Clear
4:55 AM 32.0 °F - 32.0 °F 100% 30.00 in 5.0 mi Calm Calm - N/A   Clear
5:15 AM 32.0 °F - 32.0 °F 100% 30.01 in 7.0 mi Calm Calm - N/A   Clear
5:35 AM 32.0 °F - 32.0 °F 100% 30.02 in 7.0 mi Calm Calm - N/A   Clear
5:55 AM 32.0 °F - 32.0 °F 100% 30.02 in 7.0 mi Calm Calm - N/A   Clear
6:15 AM 32.0 °F - 32.0 °F 100% 30.03 in 7.0 mi Calm Calm - N/A   Clear
6:35 AM 32.0 °F - 32.0 °F 100% 30.03 in 10.0 mi Calm Calm - N/A   Clear
6:55 AM 32.0 °F - 32.0 °F 100% 30.04 in 7.0 mi Calm Calm - N/A   Clear
7:15 AM 32.0 °F - 32.0 °F 100% 30.05 in 7.0 mi Calm Calm - N/A   Clear
7:35 AM 33.8 °F - 33.8 °F 100% 30.07 in 7.0 mi Calm Calm - N/A   Clear
7:55 AM 35.6 °F - 35.6 °F 100% 30.07 in 7.0 mi Calm Calm - N/A   Clear
8:15 AM 37.4 °F - 35.6 °F 93% 30.08 in 10.0 mi Calm Calm - N/A   Clear
8:35 AM 41.0 °F - 37.4 °F 87% 30.09 in 10.0 mi Calm Calm - N/A   Clear
8:55 AM 42.8 °F 41.1 °F 35.6 °F 76% 30.09 in 10.0 mi NW 3.5 mph - N/A   Clear
9:15 AM 44.6 °F - 37.4 °F 76% 30.09 in 10.0 mi Calm Calm - N/A   Clear
9:35 AM 46.4 °F - 35.6 °F 66% 30.10 in 10.0 mi Calm Calm - N/A   Clear
9:55 AM 50.0 °F - 35.6 °F 58% 30.10 in 10.0 mi WNW 3.5 mph - N/A   Clear
10:15 AM 51.8 °F - 33.8 °F 50% 30.10 in 10.0 mi West 5.8 mph - N/A   Clear
10:35 AM 53.6 °F - 35.6 °F 51% 30.10 in 10.0 mi NW 4.6 mph - N/A   Clear
10:55 AM 53.6 °F - 33.8 °F 47% 30.09 in 10.0 mi WNW 11.5 mph 16.1 mph N/A   Clear
11:15 AM 55.4 °F - 33.8 °F 44% 30.08 in 10.0 mi West 8.1 mph - N/A   Clear
11:35 AM 55.4 °F - 32.0 °F 41% 30.08 in 10.0 mi WNW 9.2 mph - N/A   Clear
12:15 PM 59.0 °F - 30.2 °F 34% 30.06 in 10.0 mi WNW 9.2 mph - N/A   Clear
12:35 PM 59.0 °F - 30.2 °F 34% 30.05 in 10.0 mi West 10.4 mph - N/A   Clear
12:55 PM 60.8 °F - 30.2 °F 31% 30.05 in 10.0 mi West 8.1 mph - N/A   Clear
1:15 PM 60.8 °F - 28.4 °F 29% 30.04 in 10.0 mi WNW 9.2 mph - N/A   Clear
1:35 PM 60.8 °F - 26.6 °F 27% 30.04 in 10.0 mi WNW 11.5 mph 18.4 mph N/A   Clear
1:55 PM 60.8 °F - 28.4 °F 29% 30.04 in 10.0 mi WNW 11.5 mph - N/A   Clear
2:15 PM 60.8 °F - 26.6 °F 27% 30.04 in 10.0 mi NW 12.7 mph 17.3 mph N/A   Clear
2:35 PM 62.6 °F - 26.6 °F 26% 30.03 in 10.0 mi WNW 11.5 mph - N/A   Clear
2:55 PM 62.6 °F - 24.8 °F 24% 30.03 in 10.0 mi WNW 12.7 mph - N/A   Clear
3:15 PM 62.6 °F - 26.6 °F 26% 30.03 in 10.0 mi NNW 6.9 mph - N/A   Clear
3:35 PM 62.6 °F - 24.8 °F 24% 30.03 in 10.0 mi NW 9.2 mph - N/A   Clear
3:55 PM 62.6 °F - 26.6 °F 26% 30.04 in 10.0 mi NW 9.2 mph - N/A   Clear
4:15 PM 60.8 °F - 26.6 °F 27% 30.04 in 10.0 mi WNW 6.9 mph - N/A   Clear
4:35 PM 60.8 °F - 28.4 °F 29% 30.04 in 10.0 mi West 6.9 mph - N/A   Clear
4:55 PM 59.0 °F - 28.4 °F 31% 30.05 in 10.0 mi West 3.5 mph - N/A   Clear
5:15 PM 50.0 °F - 39.2 °F 66% 30.05 in 10.0 mi West 3.5 mph - N/A   Clear
5:35 PM 48.2 °F - 39.2 °F 71% 30.06 in 10.0 mi Calm Calm - N/A   Clear
5:55 PM 44.6 °F - 35.6 °F 71% 30.07 in 10.0 mi Calm Calm - N/A   Clear
6:15 PM 44.6 °F - 37.4 °F 76% 30.07 in 10.0 mi Calm Calm - N/A   Clear
6:35 PM 44.6 °F - 37.4 °F 76% 30.08 in 10.0 mi Calm Calm - N/A   Clear
6:55 PM 42.8 °F - 37.4 °F 81% 30.09 in 10.0 mi Calm Calm - N/A   Clear
7:15 PM 42.8 °F - 37.4 °F 81% 30.09 in 10.0 mi Calm Calm - N/A   Clear
7:35 PM 42.8 °F - 35.6 °F 76% 30.10 in 10.0 mi Calm Calm - N/A   Clear
7:55 PM 41.0 °F - 35.6 °F 81% 30.09 in 10.0 mi Calm Calm - N/A   Clear
8:35 PM 41.0 °F - 37.4 °F 87% 30.10 in 10.0 mi Calm Calm - N/A   Clear
8:55 PM 41.0 °F - 35.6 °F 81% 30.10 in 10.0 mi Calm Calm - N/A   Clear
9:15 PM 41.0 °F - 37.4 °F 87% 30.11 in 10.0 mi Calm Calm - N/A   Clear
9:55 PM 39.2 °F - 35.6 °F 87% 30.12 in 10.0 mi Calm Calm - N/A   Clear
10:15 PM 37.4 °F - 35.6 °F 93% 30.12 in 10.0 mi Calm Calm - N/A   Clear
10:35 PM 37.4 °F - 35.6 °F 93% 30.12 in 10.0 mi Calm Calm - N/A   Clear
10:55 PM 37.4 °F - 35.6 °F 93% 30.13 in 10.0 mi Calm Calm - N/A   Clear
11:15 PM 37.4 °F - 35.6 °F 93% 30.13 in 10.0 mi Calm Calm - N/A   Clear
11:55 PM 37.4 °F 33.8 °F 35.6 °F 93% 30.13 in 10.0 mi WNW 4.6 mph - N/A   Clear